<?xml version="1.0" encoding="UTF-8" standalone="no" ?>
<gpx xmlns="http://www.topografix.com/GPX/1/1" xmlns:xsi="http://www.w3.org/2001/XMLSchema-instance" xsi:schemaLocation="http://www.topografix.com/GPX/1/1 http://www.topografix.com/GPX/1/1/gpx.xsd" version="1.1" creator="VisuGPX - https://www.visugpx.com">
  <metadata>
    <name>Circuit 15 mars SE</name>
    <desc><![CDATA[
]]></desc>
  </metadata>
  <trk>
    <name><![CDATA[Circuit 15 mars SE_1]]></name>
    <trkseg>
      <trkpt lat="43.5606" lon="1.33668">
        <ele>214</ele>
        <time>2015-03-19T15:47:52Z</time>
      </trkpt>
      <trkpt lat="43.56" lon="1.33618">
        <ele>214</ele>
        <time>2015-03-19T15:48:08Z</time>
      </trkpt>
      <trkpt lat="43.55925" lon="1.33546">
        <ele>213</ele>
        <time>2015-03-19T15:48:23Z</time>
      </trkpt>
      <trkpt lat="43.55842" lon="1.33467">
        <ele>213</ele>
        <time>2015-03-19T15:48:39Z</time>
      </trkpt>
      <trkpt lat="43.5574" lon="1.33424">
        <ele>212</ele>
        <time>2015-03-19T15:48:54Z</time>
      </trkpt>
      <trkpt lat="43.55645" lon="1.33338">
        <ele>212</ele>
        <time>2015-03-19T15:49:10Z</time>
      </trkpt>
      <trkpt lat="43.55554" lon="1.33274">
        <ele>212</ele>
        <time>2015-03-19T15:49:26Z</time>
      </trkpt>
      <trkpt lat="43.55452" lon="1.33337">
        <ele>212</ele>
        <time>2015-03-19T15:49:42Z</time>
      </trkpt>
      <trkpt lat="43.55351" lon="1.33409">
        <ele>212</ele>
        <time>2015-03-19T15:49:58Z</time>
      </trkpt>
      <trkpt lat="43.5525" lon="1.33494">
        <ele>212</ele>
        <time>2015-03-19T15:50:14Z</time>
      </trkpt>
      <trkpt lat="43.55153" lon="1.33567">
        <ele>214</ele>
        <time>2015-03-19T15:50:29Z</time>
      </trkpt>
      <trkpt lat="43.55048" lon="1.33616">
        <ele>214</ele>
        <time>2015-03-19T15:50:44Z</time>
      </trkpt>
      <trkpt lat="43.54938" lon="1.33668">
        <ele>214</ele>
        <time>2015-03-19T15:51:00Z</time>
      </trkpt>
      <trkpt lat="43.54836" lon="1.33731">
        <ele>216</ele>
        <time>2015-03-19T15:51:16Z</time>
      </trkpt>
      <trkpt lat="43.54719" lon="1.33773">
        <ele>214</ele>
        <time>2015-03-19T15:51:32Z</time>
      </trkpt>
      <trkpt lat="43.54597" lon="1.33802">
        <ele>213</ele>
        <time>2015-03-19T15:51:48Z</time>
      </trkpt>
      <trkpt lat="43.5448" lon="1.33804">
        <ele>214</ele>
        <time>2015-03-19T15:52:04Z</time>
      </trkpt>
      <trkpt lat="43.5437" lon="1.33812">
        <ele>214</ele>
        <time>2015-03-19T15:52:19Z</time>
      </trkpt>
      <trkpt lat="43.54258" lon="1.33816">
        <ele>215</ele>
        <time>2015-03-19T15:52:35Z</time>
      </trkpt>
      <trkpt lat="43.54164" lon="1.3381">
        <ele>215</ele>
        <time>2015-03-19T15:52:50Z</time>
      </trkpt>
      <trkpt lat="43.54202" lon="1.33849">
        <ele>217</ele>
        <time>2015-03-19T15:53:06Z</time>
      </trkpt>
      <trkpt lat="43.542" lon="1.33848">
        <ele>218</ele>
        <time>2015-03-19T15:53:22Z</time>
      </trkpt>
      <trkpt lat="43.542" lon="1.33847">
        <ele>218</ele>
        <time>2015-03-19T15:53:38Z</time>
      </trkpt>
      <trkpt lat="43.542" lon="1.33848">
        <ele>219</ele>
        <time>2015-03-19T15:53:53Z</time>
      </trkpt>
      <trkpt lat="43.542" lon="1.33848">
        <ele>219</ele>
        <time>2015-03-19T15:54:08Z</time>
      </trkpt>
      <trkpt lat="43.542" lon="1.33848">
        <ele>219</ele>
        <time>2015-03-19T15:54:24Z</time>
      </trkpt>
      <trkpt lat="43.542" lon="1.33848">
        <ele>219</ele>
        <time>2015-03-19T15:54:40Z</time>
      </trkpt>
      <trkpt lat="43.542" lon="1.33848">
        <ele>219</ele>
        <time>2015-03-19T15:54:56Z</time>
      </trkpt>
      <trkpt lat="43.542" lon="1.33848">
        <ele>219</ele>
        <time>2015-03-19T15:55:12Z</time>
      </trkpt>
      <trkpt lat="43.542" lon="1.33848">
        <ele>219</ele>
        <time>2015-03-19T15:55:27Z</time>
      </trkpt>
      <trkpt lat="43.542" lon="1.33848">
        <ele>219</ele>
        <time>2015-03-19T15:55:43Z</time>
      </trkpt>
      <trkpt lat="43.542" lon="1.33848">
        <ele>219</ele>
        <time>2015-03-19T15:55:59Z</time>
      </trkpt>
      <trkpt lat="43.542" lon="1.33848">
        <ele>219</ele>
        <time>2015-03-19T15:56:15Z</time>
      </trkpt>
      <trkpt lat="43.542" lon="1.33848">
        <ele>219</ele>
        <time>2015-03-19T15:56:30Z</time>
      </trkpt>
      <trkpt lat="43.542" lon="1.33848">
        <ele>219</ele>
        <time>2015-03-19T15:56:46Z</time>
      </trkpt>
      <trkpt lat="43.54207" lon="1.33839">
        <ele>218</ele>
        <time>2015-03-19T15:57:02Z</time>
      </trkpt>
      <trkpt lat="43.54194" lon="1.33859">
        <ele>218</ele>
        <time>2015-03-19T15:57:17Z</time>
      </trkpt>
      <trkpt lat="43.54175" lon="1.33799">
        <ele>217</ele>
        <time>2015-03-19T15:57:32Z</time>
      </trkpt>
      <trkpt lat="43.54085" lon="1.33861">
        <ele>216</ele>
        <time>2015-03-19T15:57:48Z</time>
      </trkpt>
      <trkpt lat="43.53983" lon="1.33909">
        <ele>215</ele>
        <time>2015-03-19T15:58:04Z</time>
      </trkpt>
      <trkpt lat="43.53909" lon="1.33938">
        <ele>218</ele>
        <time>2015-03-19T15:58:19Z</time>
      </trkpt>
      <trkpt lat="43.53842" lon="1.34028">
        <ele>215</ele>
        <time>2015-03-19T15:58:35Z</time>
      </trkpt>
      <trkpt lat="43.53778" lon="1.33958">
        <ele>214</ele>
        <time>2015-03-19T15:58:51Z</time>
      </trkpt>
      <trkpt lat="43.53716" lon="1.33826">
        <ele>217</ele>
        <time>2015-03-19T15:59:07Z</time>
      </trkpt>
      <trkpt lat="43.53661" lon="1.33713">
        <ele>217</ele>
        <time>2015-03-19T15:59:22Z</time>
      </trkpt>
      <trkpt lat="43.53604" lon="1.33717">
        <ele>216</ele>
        <time>2015-03-19T15:59:38Z</time>
      </trkpt>
      <trkpt lat="43.53548" lon="1.33817">
        <ele>216</ele>
        <time>2015-03-19T15:59:54Z</time>
      </trkpt>
      <trkpt lat="43.53491" lon="1.3393">
        <ele>215</ele>
        <time>2015-03-19T16:00:09Z</time>
      </trkpt>
      <trkpt lat="43.53422" lon="1.34043">
        <ele>215</ele>
        <time>2015-03-19T16:00:25Z</time>
      </trkpt>
      <trkpt lat="43.53364" lon="1.3416">
        <ele>216</ele>
        <time>2015-03-19T16:00:40Z</time>
      </trkpt>
      <trkpt lat="43.53317" lon="1.34276">
        <ele>216</ele>
        <time>2015-03-19T16:00:55Z</time>
      </trkpt>
      <trkpt lat="43.53298" lon="1.34324">
        <ele>216</ele>
        <time>2015-03-19T16:01:11Z</time>
      </trkpt>
      <trkpt lat="43.53298" lon="1.34324">
        <ele>215</ele>
        <time>2015-03-19T16:01:26Z</time>
      </trkpt>
      <trkpt lat="43.53271" lon="1.34337">
        <ele>218</ele>
        <time>2015-03-19T16:01:41Z</time>
      </trkpt>
      <trkpt lat="43.53183" lon="1.3427">
        <ele>219</ele>
        <time>2015-03-19T16:01:57Z</time>
      </trkpt>
      <trkpt lat="43.53089" lon="1.34247">
        <ele>218</ele>
        <time>2015-03-19T16:02:12Z</time>
      </trkpt>
      <trkpt lat="43.52991" lon="1.34242">
        <ele>218</ele>
        <time>2015-03-19T16:02:27Z</time>
      </trkpt>
      <trkpt lat="43.52891" lon="1.342">
        <ele>219</ele>
        <time>2015-03-19T16:02:43Z</time>
      </trkpt>
      <trkpt lat="43.52804" lon="1.3415">
        <ele>219</ele>
        <time>2015-03-19T16:02:58Z</time>
      </trkpt>
      <trkpt lat="43.52709" lon="1.34079">
        <ele>219</ele>
        <time>2015-03-19T16:03:14Z</time>
      </trkpt>
      <trkpt lat="43.5261" lon="1.34094">
        <ele>218</ele>
        <time>2015-03-19T16:03:29Z</time>
      </trkpt>
      <trkpt lat="43.52513" lon="1.3409">
        <ele>219</ele>
        <time>2015-03-19T16:03:45Z</time>
      </trkpt>
      <trkpt lat="43.52458" lon="1.34155">
        <ele>219</ele>
        <time>2015-03-19T16:04:00Z</time>
      </trkpt>
      <trkpt lat="43.52399" lon="1.3424">
        <ele>219</ele>
        <time>2015-03-19T16:04:15Z</time>
      </trkpt>
      <trkpt lat="43.52343" lon="1.34277">
        <ele>215</ele>
        <time>2015-03-19T16:04:31Z</time>
      </trkpt>
      <trkpt lat="43.52217" lon="1.34231">
        <ele>207</ele>
        <time>2015-03-19T16:04:46Z</time>
      </trkpt>
      <trkpt lat="43.52105" lon="1.34355">
        <ele>206</ele>
        <time>2015-03-19T16:05:02Z</time>
      </trkpt>
      <trkpt lat="43.51986" lon="1.34416">
        <ele>206</ele>
        <time>2015-03-19T16:05:18Z</time>
      </trkpt>
      <trkpt lat="43.51886" lon="1.34464">
        <ele>207</ele>
        <time>2015-03-19T16:05:33Z</time>
      </trkpt>
      <trkpt lat="43.51797" lon="1.34568">
        <ele>207</ele>
        <time>2015-03-19T16:05:49Z</time>
      </trkpt>
      <trkpt lat="43.51739" lon="1.34703">
        <ele>207</ele>
        <time>2015-03-19T16:06:05Z</time>
      </trkpt>
      <trkpt lat="43.51721" lon="1.34834">
        <ele>209</ele>
        <time>2015-03-19T16:06:20Z</time>
      </trkpt>
      <trkpt lat="43.51719" lon="1.3499">
        <ele>209</ele>
        <time>2015-03-19T16:06:36Z</time>
      </trkpt>
      <trkpt lat="43.51711" lon="1.35143">
        <ele>209</ele>
        <time>2015-03-19T16:06:51Z</time>
      </trkpt>
      <trkpt lat="43.51688" lon="1.3529">
        <ele>209</ele>
        <time>2015-03-19T16:07:06Z</time>
      </trkpt>
      <trkpt lat="43.5166" lon="1.35445">
        <ele>209</ele>
        <time>2015-03-19T16:07:22Z</time>
      </trkpt>
      <trkpt lat="43.51692" lon="1.35597">
        <ele>208</ele>
        <time>2015-03-19T16:07:38Z</time>
      </trkpt>
      <trkpt lat="43.51667" lon="1.35742">
        <ele>209</ele>
        <time>2015-03-19T16:07:53Z</time>
      </trkpt>
      <trkpt lat="43.51656" lon="1.35878">
        <ele>210</ele>
        <time>2015-03-19T16:08:08Z</time>
      </trkpt>
      <trkpt lat="43.51634" lon="1.36028">
        <ele>207</ele>
        <time>2015-03-19T16:08:24Z</time>
      </trkpt>
      <trkpt lat="43.51584" lon="1.36146">
        <ele>207</ele>
        <time>2015-03-19T16:08:40Z</time>
      </trkpt>
      <trkpt lat="43.51538" lon="1.36273">
        <ele>206</ele>
        <time>2015-03-19T16:08:56Z</time>
      </trkpt>
      <trkpt lat="43.51491" lon="1.36391">
        <ele>206</ele>
        <time>2015-03-19T16:09:11Z</time>
      </trkpt>
      <trkpt lat="43.51433" lon="1.36501">
        <ele>206</ele>
        <time>2015-03-19T16:09:26Z</time>
      </trkpt>
      <trkpt lat="43.51358" lon="1.36588">
        <ele>209</ele>
        <time>2015-03-19T16:09:42Z</time>
      </trkpt>
      <trkpt lat="43.51288" lon="1.36648">
        <ele>214</ele>
        <time>2015-03-19T16:09:58Z</time>
      </trkpt>
      <trkpt lat="43.51208" lon="1.36714">
        <ele>211</ele>
        <time>2015-03-19T16:10:14Z</time>
      </trkpt>
      <trkpt lat="43.5112" lon="1.36752">
        <ele>210</ele>
        <time>2015-03-19T16:10:29Z</time>
      </trkpt>
      <trkpt lat="43.51077" lon="1.36846">
        <ele>213</ele>
        <time>2015-03-19T16:10:44Z</time>
      </trkpt>
      <trkpt lat="43.51018" lon="1.36957">
        <ele>211</ele>
        <time>2015-03-19T16:11:00Z</time>
      </trkpt>
      <trkpt lat="43.51102" lon="1.37094">
        <ele>208</ele>
        <time>2015-03-19T16:11:16Z</time>
      </trkpt>
      <trkpt lat="43.51195" lon="1.3715">
        <ele>205</ele>
        <time>2015-03-19T16:11:31Z</time>
      </trkpt>
      <trkpt lat="43.51182" lon="1.373">
        <ele>205</ele>
        <time>2015-03-19T16:11:47Z</time>
      </trkpt>
      <trkpt lat="43.51152" lon="1.37444">
        <ele>201</ele>
        <time>2015-03-19T16:12:02Z</time>
      </trkpt>
      <trkpt lat="43.51103" lon="1.37573">
        <ele>202</ele>
        <time>2015-03-19T16:12:17Z</time>
      </trkpt>
      <trkpt lat="43.51054" lon="1.37638">
        <ele>201</ele>
        <time>2015-03-19T16:12:33Z</time>
      </trkpt>
      <trkpt lat="43.50993" lon="1.3768">
        <ele>200</ele>
        <time>2015-03-19T16:12:48Z</time>
      </trkpt>
      <trkpt lat="43.51019" lon="1.37763">
        <ele>201</ele>
        <time>2015-03-19T16:13:03Z</time>
      </trkpt>
      <trkpt lat="43.51059" lon="1.37873">
        <ele>202</ele>
        <time>2015-03-19T16:13:18Z</time>
      </trkpt>
      <trkpt lat="43.51096" lon="1.38002">
        <ele>205</ele>
        <time>2015-03-19T16:13:34Z</time>
      </trkpt>
      <trkpt lat="43.5114" lon="1.38125">
        <ele>203</ele>
        <time>2015-03-19T16:13:49Z</time>
      </trkpt>
      <trkpt lat="43.51192" lon="1.38258">
        <ele>203</ele>
        <time>2015-03-19T16:14:05Z</time>
      </trkpt>
      <trkpt lat="43.51239" lon="1.38383">
        <ele>202</ele>
        <time>2015-03-19T16:14:20Z</time>
      </trkpt>
      <trkpt lat="43.51259" lon="1.38528">
        <ele>202</ele>
        <time>2015-03-19T16:14:36Z</time>
      </trkpt>
      <trkpt lat="43.51269" lon="1.38651">
        <ele>205</ele>
        <time>2015-03-19T16:14:52Z</time>
      </trkpt>
      <trkpt lat="43.51305" lon="1.38758">
        <ele>207</ele>
        <time>2015-03-19T16:15:08Z</time>
      </trkpt>
      <trkpt lat="43.51231" lon="1.38803">
        <ele>204</ele>
        <time>2015-03-19T16:15:24Z</time>
      </trkpt>
      <trkpt lat="43.51139" lon="1.38833">
        <ele>202</ele>
        <time>2015-03-19T16:15:39Z</time>
      </trkpt>
      <trkpt lat="43.51053" lon="1.38861">
        <ele>197</ele>
        <time>2015-03-19T16:15:55Z</time>
      </trkpt>
      <trkpt lat="43.51007" lon="1.38873">
        <ele>197</ele>
        <time>2015-03-19T16:16:10Z</time>
      </trkpt>
      <trkpt lat="43.51007" lon="1.38873">
        <ele>196</ele>
        <time>2015-03-19T16:16:26Z</time>
      </trkpt>
      <trkpt lat="43.50999" lon="1.38875">
        <ele>197</ele>
        <time>2015-03-19T16:16:41Z</time>
      </trkpt>
      <trkpt lat="43.50947" lon="1.38923">
        <ele>197</ele>
        <time>2015-03-19T16:16:56Z</time>
      </trkpt>
      <trkpt lat="43.50883" lon="1.38985">
        <ele>199</ele>
        <time>2015-03-19T16:17:12Z</time>
      </trkpt>
      <trkpt lat="43.50871" lon="1.38993">
        <ele>203</ele>
        <time>2015-03-19T16:17:27Z</time>
      </trkpt>
      <trkpt lat="43.50868" lon="1.38993">
        <ele>204</ele>
        <time>2015-03-19T16:17:43Z</time>
      </trkpt>
      <trkpt lat="43.50797" lon="1.39024">
        <ele>207</ele>
        <time>2015-03-19T16:17:59Z</time>
      </trkpt>
      <trkpt lat="43.50727" lon="1.39051">
        <ele>204</ele>
        <time>2015-03-19T16:18:15Z</time>
      </trkpt>
      <trkpt lat="43.50661" lon="1.39065">
        <ele>201</ele>
        <time>2015-03-19T16:18:30Z</time>
      </trkpt>
      <trkpt lat="43.50594" lon="1.39082">
        <ele>199</ele>
        <time>2015-03-19T16:18:45Z</time>
      </trkpt>
      <trkpt lat="43.5052" lon="1.39101">
        <ele>200</ele>
        <time>2015-03-19T16:19:01Z</time>
      </trkpt>
      <trkpt lat="43.50424" lon="1.39125">
        <ele>200</ele>
        <time>2015-03-19T16:19:17Z</time>
      </trkpt>
      <trkpt lat="43.5034" lon="1.39149">
        <ele>199</ele>
        <time>2015-03-19T16:19:32Z</time>
      </trkpt>
      <trkpt lat="43.50272" lon="1.39173">
        <ele>204</ele>
        <time>2015-03-19T16:19:48Z</time>
      </trkpt>
      <trkpt lat="43.50194" lon="1.39238">
        <ele>204</ele>
        <time>2015-03-19T16:20:03Z</time>
      </trkpt>
      <trkpt lat="43.50106" lon="1.39302">
        <ele>203</ele>
        <time>2015-03-19T16:20:19Z</time>
      </trkpt>
      <trkpt lat="43.50014" lon="1.39344">
        <ele>204</ele>
        <time>2015-03-19T16:20:34Z</time>
      </trkpt>
      <trkpt lat="43.49914" lon="1.39374">
        <ele>202</ele>
        <time>2015-03-19T16:20:50Z</time>
      </trkpt>
      <trkpt lat="43.49853" lon="1.39379">
        <ele>203</ele>
        <time>2015-03-19T16:21:06Z</time>
      </trkpt>
      <trkpt lat="43.49799" lon="1.39474">
        <ele>202</ele>
        <time>2015-03-19T16:21:22Z</time>
      </trkpt>
      <trkpt lat="43.4974" lon="1.39573">
        <ele>202</ele>
        <time>2015-03-19T16:21:37Z</time>
      </trkpt>
      <trkpt lat="43.49681" lon="1.39698">
        <ele>203</ele>
        <time>2015-03-19T16:21:53Z</time>
      </trkpt>
      <trkpt lat="43.49623" lon="1.39805">
        <ele>203</ele>
        <time>2015-03-19T16:22:08Z</time>
      </trkpt>
      <trkpt lat="43.49559" lon="1.39908">
        <ele>203</ele>
        <time>2015-03-19T16:22:24Z</time>
      </trkpt>
      <trkpt lat="43.4949" lon="1.40002">
        <ele>204</ele>
        <time>2015-03-19T16:22:39Z</time>
      </trkpt>
      <trkpt lat="43.49414" lon="1.40097">
        <ele>204</ele>
        <time>2015-03-19T16:22:55Z</time>
      </trkpt>
      <trkpt lat="43.49347" lon="1.40178">
        <ele>205</ele>
        <time>2015-03-19T16:23:10Z</time>
      </trkpt>
      <trkpt lat="43.49274" lon="1.40269">
        <ele>205</ele>
        <time>2015-03-19T16:23:26Z</time>
      </trkpt>
      <trkpt lat="43.49206" lon="1.40349">
        <ele>205</ele>
        <time>2015-03-19T16:23:42Z</time>
      </trkpt>
      <trkpt lat="43.49197" lon="1.40355">
        <ele>207</ele>
        <time>2015-03-19T16:23:58Z</time>
      </trkpt>
      <trkpt lat="43.49229" lon="1.40439">
        <ele>206</ele>
        <time>2015-03-19T16:24:14Z</time>
      </trkpt>
      <trkpt lat="43.49293" lon="1.40554">
        <ele>209</ele>
        <time>2015-03-19T16:24:29Z</time>
      </trkpt>
      <trkpt lat="43.49368" lon="1.40651">
        <ele>209</ele>
        <time>2015-03-19T16:24:44Z</time>
      </trkpt>
      <trkpt lat="43.49483" lon="1.40677">
        <ele>204</ele>
        <time>2015-03-19T16:25:00Z</time>
      </trkpt>
      <trkpt lat="43.49591" lon="1.40642">
        <ele>203</ele>
        <time>2015-03-19T16:25:15Z</time>
      </trkpt>
      <trkpt lat="43.49706" lon="1.4059">
        <ele>203</ele>
        <time>2015-03-19T16:25:31Z</time>
      </trkpt>
      <trkpt lat="43.49803" lon="1.40613">
        <ele>205</ele>
        <time>2015-03-19T16:25:46Z</time>
      </trkpt>
      <trkpt lat="43.49879" lon="1.40702">
        <ele>206</ele>
        <time>2015-03-19T16:26:02Z</time>
      </trkpt>
      <trkpt lat="43.49945" lon="1.40802">
        <ele>208</ele>
        <time>2015-03-19T16:26:17Z</time>
      </trkpt>
      <trkpt lat="43.5002" lon="1.40931">
        <ele>204</ele>
        <time>2015-03-19T16:26:33Z</time>
      </trkpt>
      <trkpt lat="43.50083" lon="1.41035">
        <ele>202</ele>
        <time>2015-03-19T16:26:48Z</time>
      </trkpt>
      <trkpt lat="43.50191" lon="1.41099">
        <ele>202</ele>
        <time>2015-03-19T16:27:04Z</time>
      </trkpt>
      <trkpt lat="43.50301" lon="1.41154">
        <ele>202</ele>
        <time>2015-03-19T16:27:20Z</time>
      </trkpt>
      <trkpt lat="43.50408" lon="1.41205">
        <ele>203</ele>
        <time>2015-03-19T16:27:35Z</time>
      </trkpt>
      <trkpt lat="43.50504" lon="1.4125">
        <ele>200</ele>
        <time>2015-03-19T16:27:50Z</time>
      </trkpt>
      <trkpt lat="43.50536" lon="1.4135">
        <ele>200</ele>
        <time>2015-03-19T16:28:05Z</time>
      </trkpt>
      <trkpt lat="43.50484" lon="1.41469">
        <ele>201</ele>
        <time>2015-03-19T16:28:21Z</time>
      </trkpt>
      <trkpt lat="43.50426" lon="1.4156">
        <ele>202</ele>
        <time>2015-03-19T16:28:36Z</time>
      </trkpt>
      <trkpt lat="43.50371" lon="1.41641">
        <ele>205</ele>
        <time>2015-03-19T16:28:51Z</time>
      </trkpt>
      <trkpt lat="43.50324" lon="1.4173">
        <ele>207</ele>
        <time>2015-03-19T16:29:06Z</time>
      </trkpt>
      <trkpt lat="43.50278" lon="1.41828">
        <ele>209</ele>
        <time>2015-03-19T16:29:22Z</time>
      </trkpt>
      <trkpt lat="43.50216" lon="1.41911">
        <ele>209</ele>
        <time>2015-03-19T16:29:37Z</time>
      </trkpt>
      <trkpt lat="43.50156" lon="1.42014">
        <ele>209</ele>
        <time>2015-03-19T16:29:53Z</time>
      </trkpt>
      <trkpt lat="43.50105" lon="1.4212">
        <ele>209</ele>
        <time>2015-03-19T16:30:08Z</time>
      </trkpt>
      <trkpt lat="43.50033" lon="1.42232">
        <ele>209</ele>
        <time>2015-03-19T16:30:24Z</time>
      </trkpt>
      <trkpt lat="43.4997" lon="1.42333">
        <ele>211</ele>
        <time>2015-03-19T16:30:39Z</time>
      </trkpt>
      <trkpt lat="43.49901" lon="1.42437">
        <ele>210</ele>
        <time>2015-03-19T16:30:55Z</time>
      </trkpt>
      <trkpt lat="43.49868" lon="1.4256">
        <ele>211</ele>
        <time>2015-03-19T16:31:10Z</time>
      </trkpt>
      <trkpt lat="43.49926" lon="1.42686">
        <ele>211</ele>
        <time>2015-03-19T16:31:26Z</time>
      </trkpt>
      <trkpt lat="43.4991" lon="1.42818">
        <ele>210</ele>
        <time>2015-03-19T16:31:42Z</time>
      </trkpt>
      <trkpt lat="43.49864" lon="1.42928">
        <ele>209</ele>
        <time>2015-03-19T16:31:58Z</time>
      </trkpt>
      <trkpt lat="43.49818" lon="1.43027">
        <ele>211</ele>
        <time>2015-03-19T16:32:13Z</time>
      </trkpt>
      <trkpt lat="43.49762" lon="1.4312">
        <ele>212</ele>
        <time>2015-03-19T16:32:29Z</time>
      </trkpt>
      <trkpt lat="43.49699" lon="1.43207">
        <ele>212</ele>
        <time>2015-03-19T16:32:44Z</time>
      </trkpt>
      <trkpt lat="43.49633" lon="1.433">
        <ele>212</ele>
        <time>2015-03-19T16:33:00Z</time>
      </trkpt>
      <trkpt lat="43.49568" lon="1.4339">
        <ele>212</ele>
        <time>2015-03-19T16:33:16Z</time>
      </trkpt>
      <trkpt lat="43.495" lon="1.43477">
        <ele>212</ele>
        <time>2015-03-19T16:33:32Z</time>
      </trkpt>
      <trkpt lat="43.49432" lon="1.43549">
        <ele>213</ele>
        <time>2015-03-19T16:33:48Z</time>
      </trkpt>
      <trkpt lat="43.49356" lon="1.43628">
        <ele>214</ele>
        <time>2015-03-19T16:34:04Z</time>
      </trkpt>
      <trkpt lat="43.49284" lon="1.43699">
        <ele>213</ele>
        <time>2015-03-19T16:34:19Z</time>
      </trkpt>
      <trkpt lat="43.49208" lon="1.43772">
        <ele>215</ele>
        <time>2015-03-19T16:34:34Z</time>
      </trkpt>
      <trkpt lat="43.49152" lon="1.43836">
        <ele>217</ele>
        <time>2015-03-19T16:34:50Z</time>
      </trkpt>
      <trkpt lat="43.49098" lon="1.43874">
        <ele>219</ele>
        <time>2015-03-19T16:35:06Z</time>
      </trkpt>
      <trkpt lat="43.49048" lon="1.43974">
        <ele>219</ele>
        <time>2015-03-19T16:35:22Z</time>
      </trkpt>
      <trkpt lat="43.48997" lon="1.44075">
        <ele>219</ele>
        <time>2015-03-19T16:35:38Z</time>
      </trkpt>
      <trkpt lat="43.48948" lon="1.44175">
        <ele>220</ele>
        <time>2015-03-19T16:35:53Z</time>
      </trkpt>
      <trkpt lat="43.48901" lon="1.44272">
        <ele>221</ele>
        <time>2015-03-19T16:36:08Z</time>
      </trkpt>
      <trkpt lat="43.4885" lon="1.44378">
        <ele>221</ele>
        <time>2015-03-19T16:36:24Z</time>
      </trkpt>
      <trkpt lat="43.48802" lon="1.44477">
        <ele>221</ele>
        <time>2015-03-19T16:36:39Z</time>
      </trkpt>
      <trkpt lat="43.48751" lon="1.44592">
        <ele>220</ele>
        <time>2015-03-19T16:36:55Z</time>
      </trkpt>
      <trkpt lat="43.48699" lon="1.44708">
        <ele>223</ele>
        <time>2015-03-19T16:37:11Z</time>
      </trkpt>
      <trkpt lat="43.48649" lon="1.44819">
        <ele>223</ele>
        <time>2015-03-19T16:37:26Z</time>
      </trkpt>
      <trkpt lat="43.48598" lon="1.44935">
        <ele>222</ele>
        <time>2015-03-19T16:37:41Z</time>
      </trkpt>
      <trkpt lat="43.48547" lon="1.45047">
        <ele>223</ele>
        <time>2015-03-19T16:37:57Z</time>
      </trkpt>
      <trkpt lat="43.48502" lon="1.45154">
        <ele>223</ele>
        <time>2015-03-19T16:38:12Z</time>
      </trkpt>
      <trkpt lat="43.48479" lon="1.4527">
        <ele>224</ele>
        <time>2015-03-19T16:38:28Z</time>
      </trkpt>
      <trkpt lat="43.48465" lon="1.45377">
        <ele>226</ele>
        <time>2015-03-19T16:38:43Z</time>
      </trkpt>
      <trkpt lat="43.4845" lon="1.45495">
        <ele>227</ele>
        <time>2015-03-19T16:38:59Z</time>
      </trkpt>
      <trkpt lat="43.4843" lon="1.45606">
        <ele>227</ele>
        <time>2015-03-19T16:39:14Z</time>
      </trkpt>
      <trkpt lat="43.48402" lon="1.45712">
        <ele>228</ele>
        <time>2015-03-19T16:39:29Z</time>
      </trkpt>
      <trkpt lat="43.48366" lon="1.4582">
        <ele>228</ele>
        <time>2015-03-19T16:39:45Z</time>
      </trkpt>
      <trkpt lat="43.48316" lon="1.45912">
        <ele>230</ele>
        <time>2015-03-19T16:40:01Z</time>
      </trkpt>
      <trkpt lat="43.48262" lon="1.46003">
        <ele>229</ele>
        <time>2015-03-19T16:40:17Z</time>
      </trkpt>
      <trkpt lat="43.4817" lon="1.4602">
        <ele>228</ele>
        <time>2015-03-19T16:40:33Z</time>
      </trkpt>
      <trkpt lat="43.48089" lon="1.45997">
        <ele>229</ele>
        <time>2015-03-19T16:40:48Z</time>
      </trkpt>
      <trkpt lat="43.48043" lon="1.46107">
        <ele>227</ele>
        <time>2015-03-19T16:41:04Z</time>
      </trkpt>
      <trkpt lat="43.48016" lon="1.46225">
        <ele>229</ele>
        <time>2015-03-19T16:41:20Z</time>
      </trkpt>
      <trkpt lat="43.48005" lon="1.46338">
        <ele>230</ele>
        <time>2015-03-19T16:41:35Z</time>
      </trkpt>
      <trkpt lat="43.47992" lon="1.46459">
        <ele>229</ele>
        <time>2015-03-19T16:41:51Z</time>
      </trkpt>
      <trkpt lat="43.4797" lon="1.46579">
        <ele>230</ele>
        <time>2015-03-19T16:42:07Z</time>
      </trkpt>
      <trkpt lat="43.47948" lon="1.46695">
        <ele>229</ele>
        <time>2015-03-19T16:42:22Z</time>
      </trkpt>
      <trkpt lat="43.47911" lon="1.46811">
        <ele>231</ele>
        <time>2015-03-19T16:42:38Z</time>
      </trkpt>
      <trkpt lat="43.47861" lon="1.46911">
        <ele>231</ele>
        <time>2015-03-19T16:42:54Z</time>
      </trkpt>
      <trkpt lat="43.47811" lon="1.47003">
        <ele>232</ele>
        <time>2015-03-19T16:43:09Z</time>
      </trkpt>
      <trkpt lat="43.47758" lon="1.47104">
        <ele>233</ele>
        <time>2015-03-19T16:43:25Z</time>
      </trkpt>
      <trkpt lat="43.47706" lon="1.47204">
        <ele>233</ele>
        <time>2015-03-19T16:43:41Z</time>
      </trkpt>
      <trkpt lat="43.47655" lon="1.47298">
        <ele>234</ele>
        <time>2015-03-19T16:43:56Z</time>
      </trkpt>
      <trkpt lat="43.47593" lon="1.47394">
        <ele>235</ele>
        <time>2015-03-19T16:44:12Z</time>
      </trkpt>
      <trkpt lat="43.47545" lon="1.47486">
        <ele>235</ele>
        <time>2015-03-19T16:44:28Z</time>
      </trkpt>
      <trkpt lat="43.47498" lon="1.47589">
        <ele>234</ele>
        <time>2015-03-19T16:44:44Z</time>
      </trkpt>
      <trkpt lat="43.47454" lon="1.4769">
        <ele>234</ele>
        <time>2015-03-19T16:44:59Z</time>
      </trkpt>
      <trkpt lat="43.47406" lon="1.47804">
        <ele>235</ele>
        <time>2015-03-19T16:45:15Z</time>
      </trkpt>
      <trkpt lat="43.47382" lon="1.47917">
        <ele>236</ele>
        <time>2015-03-19T16:45:30Z</time>
      </trkpt>
      <trkpt lat="43.47363" lon="1.4803">
        <ele>239</ele>
        <time>2015-03-19T16:45:46Z</time>
      </trkpt>
      <trkpt lat="43.47342" lon="1.48138">
        <ele>241</ele>
        <time>2015-03-19T16:46:02Z</time>
      </trkpt>
      <trkpt lat="43.47333" lon="1.48254">
        <ele>242</ele>
        <time>2015-03-19T16:46:18Z</time>
      </trkpt>
      <trkpt lat="43.47329" lon="1.48367">
        <ele>243</ele>
        <time>2015-03-19T16:46:33Z</time>
      </trkpt>
      <trkpt lat="43.47302" lon="1.48489">
        <ele>245</ele>
        <time>2015-03-19T16:46:49Z</time>
      </trkpt>
      <trkpt lat="43.47271" lon="1.48592">
        <ele>248</ele>
        <time>2015-03-19T16:47:04Z</time>
      </trkpt>
      <trkpt lat="43.47251" lon="1.48701">
        <ele>248</ele>
        <time>2015-03-19T16:47:19Z</time>
      </trkpt>
      <trkpt lat="43.47236" lon="1.48813">
        <ele>246</ele>
        <time>2015-03-19T16:47:34Z</time>
      </trkpt>
      <trkpt lat="43.47236" lon="1.4893">
        <ele>248</ele>
        <time>2015-03-19T16:47:50Z</time>
      </trkpt>
      <trkpt lat="43.4723" lon="1.49049">
        <ele>247</ele>
        <time>2015-03-19T16:48:06Z</time>
      </trkpt>
      <trkpt lat="43.47217" lon="1.4916">
        <ele>248</ele>
        <time>2015-03-19T16:48:22Z</time>
      </trkpt>
      <trkpt lat="43.4718" lon="1.49268">
        <ele>251</ele>
        <time>2015-03-19T16:48:38Z</time>
      </trkpt>
      <trkpt lat="43.47138" lon="1.49349">
        <ele>251</ele>
        <time>2015-03-19T16:48:53Z</time>
      </trkpt>
      <trkpt lat="43.47095" lon="1.49417">
        <ele>254</ele>
        <time>2015-03-19T16:49:09Z</time>
      </trkpt>
      <trkpt lat="43.47059" lon="1.49476">
        <ele>256</ele>
        <time>2015-03-19T16:49:25Z</time>
      </trkpt>
      <trkpt lat="43.47027" lon="1.49528">
        <ele>260</ele>
        <time>2015-03-19T16:49:41Z</time>
      </trkpt>
      <trkpt lat="43.46994" lon="1.49577">
        <ele>264</ele>
        <time>2015-03-19T16:49:57Z</time>
      </trkpt>
      <trkpt lat="43.46968" lon="1.49622">
        <ele>268</ele>
        <time>2015-03-19T16:50:12Z</time>
      </trkpt>
      <trkpt lat="43.46941" lon="1.49668">
        <ele>271</ele>
        <time>2015-03-19T16:50:27Z</time>
      </trkpt>
      <trkpt lat="43.46907" lon="1.49717">
        <ele>275</ele>
        <time>2015-03-19T16:50:43Z</time>
      </trkpt>
      <trkpt lat="43.46878" lon="1.49762">
        <ele>279</ele>
        <time>2015-03-19T16:50:58Z</time>
      </trkpt>
      <trkpt lat="43.46848" lon="1.49813">
        <ele>282</ele>
        <time>2015-03-19T16:51:14Z</time>
      </trkpt>
      <trkpt lat="43.46815" lon="1.49861">
        <ele>286</ele>
        <time>2015-03-19T16:51:30Z</time>
      </trkpt>
      <trkpt lat="43.46775" lon="1.49898">
        <ele>289</ele>
        <time>2015-03-19T16:51:46Z</time>
      </trkpt>
      <trkpt lat="43.4674" lon="1.4993">
        <ele>293</ele>
        <time>2015-03-19T16:52:01Z</time>
      </trkpt>
      <trkpt lat="43.46703" lon="1.49965">
        <ele>297</ele>
        <time>2015-03-19T16:52:17Z</time>
      </trkpt>
      <trkpt lat="43.46666" lon="1.50002">
        <ele>301</ele>
        <time>2015-03-19T16:52:33Z</time>
      </trkpt>
      <trkpt lat="43.46624" lon="1.50045">
        <ele>303</ele>
        <time>2015-03-19T16:52:49Z</time>
      </trkpt>
      <trkpt lat="43.46582" lon="1.50088">
        <ele>306</ele>
        <time>2015-03-19T16:53:05Z</time>
      </trkpt>
      <trkpt lat="43.46543" lon="1.50128">
        <ele>309</ele>
        <time>2015-03-19T16:53:20Z</time>
      </trkpt>
      <trkpt lat="43.46503" lon="1.50169">
        <ele>311</ele>
        <time>2015-03-19T16:53:35Z</time>
      </trkpt>
      <trkpt lat="43.46464" lon="1.5022">
        <ele>314</ele>
        <time>2015-03-19T16:53:51Z</time>
      </trkpt>
      <trkpt lat="43.4643" lon="1.50275">
        <ele>317</ele>
        <time>2015-03-19T16:54:06Z</time>
      </trkpt>
      <trkpt lat="43.46392" lon="1.50342">
        <ele>318</ele>
        <time>2015-03-19T16:54:21Z</time>
      </trkpt>
      <trkpt lat="43.46353" lon="1.50408">
        <ele>321</ele>
        <time>2015-03-19T16:54:37Z</time>
      </trkpt>
      <trkpt lat="43.46321" lon="1.50463">
        <ele>323</ele>
        <time>2015-03-19T16:54:52Z</time>
      </trkpt>
      <trkpt lat="43.4629" lon="1.50515">
        <ele>326</ele>
        <time>2015-03-19T16:55:07Z</time>
      </trkpt>
      <trkpt lat="43.46256" lon="1.50575">
        <ele>328</ele>
        <time>2015-03-19T16:55:23Z</time>
      </trkpt>
      <trkpt lat="43.46225" lon="1.5064">
        <ele>330</ele>
        <time>2015-03-19T16:55:39Z</time>
      </trkpt>
      <trkpt lat="43.46191" lon="1.50725">
        <ele>330</ele>
        <time>2015-03-19T16:55:55Z</time>
      </trkpt>
      <trkpt lat="43.46158" lon="1.50816">
        <ele>330</ele>
        <time>2015-03-19T16:56:10Z</time>
      </trkpt>
      <trkpt lat="43.46124" lon="1.50915">
        <ele>331</ele>
        <time>2015-03-19T16:56:26Z</time>
      </trkpt>
      <trkpt lat="43.46092" lon="1.51004">
        <ele>333</ele>
        <time>2015-03-19T16:56:42Z</time>
      </trkpt>
      <trkpt lat="43.4606" lon="1.5109">
        <ele>337</ele>
        <time>2015-03-19T16:56:58Z</time>
      </trkpt>
      <trkpt lat="43.46029" lon="1.51179">
        <ele>338</ele>
        <time>2015-03-19T16:57:14Z</time>
      </trkpt>
      <trkpt lat="43.45981" lon="1.5121">
        <ele>333</ele>
        <time>2015-03-19T16:57:30Z</time>
      </trkpt>
      <trkpt lat="43.45883" lon="1.51077">
        <ele>323</ele>
        <time>2015-03-19T16:57:45Z</time>
      </trkpt>
      <trkpt lat="43.45775" lon="1.50947">
        <ele>320</ele>
        <time>2015-03-19T16:58:01Z</time>
      </trkpt>
      <trkpt lat="43.45675" lon="1.5079">
        <ele>314</ele>
        <time>2015-03-19T16:58:16Z</time>
      </trkpt>
      <trkpt lat="43.45635" lon="1.50643">
        <ele>318</ele>
        <time>2015-03-19T16:58:32Z</time>
      </trkpt>
      <trkpt lat="43.456" lon="1.50475">
        <ele>311</ele>
        <time>2015-03-19T16:58:48Z</time>
      </trkpt>
      <trkpt lat="43.45512" lon="1.50267">
        <ele>304</ele>
        <time>2015-03-19T16:59:04Z</time>
      </trkpt>
      <trkpt lat="43.45504" lon="1.50096">
        <ele>307</ele>
        <time>2015-03-19T16:59:20Z</time>
      </trkpt>
      <trkpt lat="43.45481" lon="1.49976">
        <ele>311</ele>
        <time>2015-03-19T16:59:35Z</time>
      </trkpt>
      <trkpt lat="43.45467" lon="1.49886">
        <ele>313</ele>
        <time>2015-03-19T16:59:50Z</time>
      </trkpt>
      <trkpt lat="43.45466" lon="1.49813">
        <ele>318</ele>
        <time>2015-03-19T17:00:05Z</time>
      </trkpt>
      <trkpt lat="43.45454" lon="1.4975">
        <ele>323</ele>
        <time>2015-03-19T17:00:21Z</time>
      </trkpt>
      <trkpt lat="43.45411" lon="1.49663">
        <ele>318</ele>
        <time>2015-03-19T17:00:36Z</time>
      </trkpt>
      <trkpt lat="43.45321" lon="1.4946">
        <ele>305</ele>
        <time>2015-03-19T17:00:52Z</time>
      </trkpt>
      <trkpt lat="43.45235" lon="1.49399">
        <ele>314</ele>
        <time>2015-03-19T17:01:07Z</time>
      </trkpt>
      <trkpt lat="43.45165" lon="1.49354">
        <ele>318</ele>
        <time>2015-03-19T17:01:23Z</time>
      </trkpt>
      <trkpt lat="43.45088" lon="1.4928">
        <ele>315</ele>
        <time>2015-03-19T17:01:38Z</time>
      </trkpt>
      <trkpt lat="43.45" lon="1.49189">
        <ele>310</ele>
        <time>2015-03-19T17:01:53Z</time>
      </trkpt>
      <trkpt lat="43.44857" lon="1.491">
        <ele>299</ele>
        <time>2015-03-19T17:02:08Z</time>
      </trkpt>
      <trkpt lat="43.44729" lon="1.49036">
        <ele>301</ele>
        <time>2015-03-19T17:02:24Z</time>
      </trkpt>
      <trkpt lat="43.44664" lon="1.48964">
        <ele>305</ele>
        <time>2015-03-19T17:02:40Z</time>
      </trkpt>
      <trkpt lat="43.44584" lon="1.4884">
        <ele>300</ele>
        <time>2015-03-19T17:02:55Z</time>
      </trkpt>
      <trkpt lat="43.44454" lon="1.48733">
        <ele>298</ele>
        <time>2015-03-19T17:03:11Z</time>
      </trkpt>
      <trkpt lat="43.44349" lon="1.48661">
        <ele>300</ele>
        <time>2015-03-19T17:03:27Z</time>
      </trkpt>
      <trkpt lat="43.44259" lon="1.48599">
        <ele>301</ele>
        <time>2015-03-19T17:03:43Z</time>
      </trkpt>
      <trkpt lat="43.44155" lon="1.48506">
        <ele>298</ele>
        <time>2015-03-19T17:03:58Z</time>
      </trkpt>
      <trkpt lat="43.44056" lon="1.48416">
        <ele>297</ele>
        <time>2015-03-19T17:04:14Z</time>
      </trkpt>
      <trkpt lat="43.43948" lon="1.48316">
        <ele>297</ele>
        <time>2015-03-19T17:04:29Z</time>
      </trkpt>
      <trkpt lat="43.43883" lon="1.48198">
        <ele>297</ele>
        <time>2015-03-19T17:04:44Z</time>
      </trkpt>
      <trkpt lat="43.43879" lon="1.48053">
        <ele>301</ele>
        <time>2015-03-19T17:04:59Z</time>
      </trkpt>
      <trkpt lat="43.43878" lon="1.47948">
        <ele>308</ele>
        <time>2015-03-19T17:05:15Z</time>
      </trkpt>
      <trkpt lat="43.43884" lon="1.47851">
        <ele>313</ele>
        <time>2015-03-19T17:05:30Z</time>
      </trkpt>
      <trkpt lat="43.43893" lon="1.47736">
        <ele>314</ele>
        <time>2015-03-19T17:05:46Z</time>
      </trkpt>
      <trkpt lat="43.43806" lon="1.47597">
        <ele>306</ele>
        <time>2015-03-19T17:06:01Z</time>
      </trkpt>
      <trkpt lat="43.43648" lon="1.47444">
        <ele>293</ele>
        <time>2015-03-19T17:06:17Z</time>
      </trkpt>
      <trkpt lat="43.4352" lon="1.47302">
        <ele>294</ele>
        <time>2015-03-19T17:06:33Z</time>
      </trkpt>
      <trkpt lat="43.4348" lon="1.47168">
        <ele>298</ele>
        <time>2015-03-19T17:06:49Z</time>
      </trkpt>
      <trkpt lat="43.43468" lon="1.47047">
        <ele>304</ele>
        <time>2015-03-19T17:07:05Z</time>
      </trkpt>
      <trkpt lat="43.43456" lon="1.46914">
        <ele>305</ele>
        <time>2015-03-19T17:07:21Z</time>
      </trkpt>
      <trkpt lat="43.43433" lon="1.4675">
        <ele>300</ele>
        <time>2015-03-19T17:07:37Z</time>
      </trkpt>
      <trkpt lat="43.43388" lon="1.46546">
        <ele>291</ele>
        <time>2015-03-19T17:07:53Z</time>
      </trkpt>
      <trkpt lat="43.43407" lon="1.46312">
        <ele>284</ele>
        <time>2015-03-19T17:08:09Z</time>
      </trkpt>
      <trkpt lat="43.43472" lon="1.46102">
        <ele>279</ele>
        <time>2015-03-19T17:08:24Z</time>
      </trkpt>
      <trkpt lat="43.43463" lon="1.45862">
        <ele>271</ele>
        <time>2015-03-19T17:08:40Z</time>
      </trkpt>
      <trkpt lat="43.43464" lon="1.45615">
        <ele>266</ele>
        <time>2015-03-19T17:08:56Z</time>
      </trkpt>
      <trkpt lat="43.43488" lon="1.45406">
        <ele>261</ele>
        <time>2015-03-19T17:09:11Z</time>
      </trkpt>
      <trkpt lat="43.43518" lon="1.45193">
        <ele>253</ele>
        <time>2015-03-19T17:09:26Z</time>
      </trkpt>
      <trkpt lat="43.43554" lon="1.44935">
        <ele>242</ele>
        <time>2015-03-19T17:09:42Z</time>
      </trkpt>
      <trkpt lat="43.43606" lon="1.44738">
        <ele>233</ele>
        <time>2015-03-19T17:09:57Z</time>
      </trkpt>
      <trkpt lat="43.43634" lon="1.44674">
        <ele>231</ele>
        <time>2015-03-19T17:10:12Z</time>
      </trkpt>
      <trkpt lat="43.43588" lon="1.44597">
        <ele>229</ele>
        <time>2015-03-19T17:10:28Z</time>
      </trkpt>
      <trkpt lat="43.43524" lon="1.44493">
        <ele>227</ele>
        <time>2015-03-19T17:10:43Z</time>
      </trkpt>
      <trkpt lat="43.43452" lon="1.444">
        <ele>228</ele>
        <time>2015-03-19T17:10:58Z</time>
      </trkpt>
      <trkpt lat="43.43466" lon="1.4429">
        <ele>226</ele>
        <time>2015-03-19T17:11:14Z</time>
      </trkpt>
      <trkpt lat="43.43452" lon="1.44185">
        <ele>220</ele>
        <time>2015-03-19T17:11:29Z</time>
      </trkpt>
      <trkpt lat="43.43411" lon="1.44129">
        <ele>213</ele>
        <time>2015-03-19T17:11:45Z</time>
      </trkpt>
      <trkpt lat="43.43348" lon="1.442">
        <ele>214</ele>
        <time>2015-03-19T17:12:00Z</time>
      </trkpt>
      <trkpt lat="43.43316" lon="1.44196">
        <ele>216</ele>
        <time>2015-03-19T17:12:16Z</time>
      </trkpt>
      <trkpt lat="43.43253" lon="1.44043">
        <ele>211</ele>
        <time>2015-03-19T17:12:31Z</time>
      </trkpt>
      <trkpt lat="43.43229" lon="1.43874">
        <ele>211</ele>
        <time>2015-03-19T17:12:47Z</time>
      </trkpt>
      <trkpt lat="43.43261" lon="1.43733">
        <ele>215</ele>
        <time>2015-03-19T17:13:02Z</time>
      </trkpt>
      <trkpt lat="43.43296" lon="1.43595">
        <ele>215</ele>
        <time>2015-03-19T17:13:17Z</time>
      </trkpt>
      <trkpt lat="43.43334" lon="1.43435">
        <ele>212</ele>
        <time>2015-03-19T17:13:32Z</time>
      </trkpt>
      <trkpt lat="43.43361" lon="1.43304">
        <ele>213</ele>
        <time>2015-03-19T17:13:47Z</time>
      </trkpt>
      <trkpt lat="43.43357" lon="1.43195">
        <ele>214</ele>
        <time>2015-03-19T17:14:03Z</time>
      </trkpt>
      <trkpt lat="43.43351" lon="1.43059">
        <ele>214</ele>
        <time>2015-03-19T17:14:19Z</time>
      </trkpt>
      <trkpt lat="43.43351" lon="1.43002">
        <ele>215</ele>
        <time>2015-03-19T17:14:35Z</time>
      </trkpt>
      <trkpt lat="43.43353" lon="1.43004">
        <ele>217</ele>
        <time>2015-03-19T17:14:51Z</time>
      </trkpt>
      <trkpt lat="43.43353" lon="1.43004">
        <ele>217</ele>
        <time>2015-03-19T17:15:06Z</time>
      </trkpt>
      <trkpt lat="43.43353" lon="1.42971">
        <ele>215</ele>
        <time>2015-03-19T17:15:21Z</time>
      </trkpt>
      <trkpt lat="43.43346" lon="1.42842">
        <ele>214</ele>
        <time>2015-03-19T17:15:37Z</time>
      </trkpt>
      <trkpt lat="43.43342" lon="1.42711">
        <ele>214</ele>
        <time>2015-03-19T17:15:52Z</time>
      </trkpt>
      <trkpt lat="43.434" lon="1.42648">
        <ele>215</ele>
        <time>2015-03-19T17:16:08Z</time>
      </trkpt>
      <trkpt lat="43.43503" lon="1.42609">
        <ele>214</ele>
        <time>2015-03-19T17:16:24Z</time>
      </trkpt>
      <trkpt lat="43.43601" lon="1.42559">
        <ele>213</ele>
        <time>2015-03-19T17:16:39Z</time>
      </trkpt>
      <trkpt lat="43.437" lon="1.4252">
        <ele>209</ele>
        <time>2015-03-19T17:16:55Z</time>
      </trkpt>
      <trkpt lat="43.43767" lon="1.42466">
        <ele>210</ele>
        <time>2015-03-19T17:17:11Z</time>
      </trkpt>
      <trkpt lat="43.43851" lon="1.42422">
        <ele>212</ele>
        <time>2015-03-19T17:17:26Z</time>
      </trkpt>
      <trkpt lat="43.4389" lon="1.42356">
        <ele>213</ele>
        <time>2015-03-19T17:17:42Z</time>
      </trkpt>
      <trkpt lat="43.43935" lon="1.42216">
        <ele>213</ele>
        <time>2015-03-19T17:17:58Z</time>
      </trkpt>
      <trkpt lat="43.43983" lon="1.4207">
        <ele>211</ele>
        <time>2015-03-19T17:18:13Z</time>
      </trkpt>
      <trkpt lat="43.44039" lon="1.41917">
        <ele>212</ele>
        <time>2015-03-19T17:18:29Z</time>
      </trkpt>
      <trkpt lat="43.44103" lon="1.41787">
        <ele>212</ele>
        <time>2015-03-19T17:18:44Z</time>
      </trkpt>
      <trkpt lat="43.44171" lon="1.41659">
        <ele>213</ele>
        <time>2015-03-19T17:19:00Z</time>
      </trkpt>
      <trkpt lat="43.44245" lon="1.41568">
        <ele>213</ele>
        <time>2015-03-19T17:19:15Z</time>
      </trkpt>
      <trkpt lat="43.44352" lon="1.41476">
        <ele>211</ele>
        <time>2015-03-19T17:19:31Z</time>
      </trkpt>
      <trkpt lat="43.44461" lon="1.41369">
        <ele>212</ele>
        <time>2015-03-19T17:19:47Z</time>
      </trkpt>
      <trkpt lat="43.44571" lon="1.41259">
        <ele>211</ele>
        <time>2015-03-19T17:20:03Z</time>
      </trkpt>
      <trkpt lat="43.44669" lon="1.41159">
        <ele>212</ele>
        <time>2015-03-19T17:20:18Z</time>
      </trkpt>
      <trkpt lat="43.44762" lon="1.41065">
        <ele>213</ele>
        <time>2015-03-19T17:20:33Z</time>
      </trkpt>
      <trkpt lat="43.44856" lon="1.40973">
        <ele>212</ele>
        <time>2015-03-19T17:20:48Z</time>
      </trkpt>
      <trkpt lat="43.44952" lon="1.40874">
        <ele>212</ele>
        <time>2015-03-19T17:21:04Z</time>
      </trkpt>
      <trkpt lat="43.45045" lon="1.4078">
        <ele>212</ele>
        <time>2015-03-19T17:21:19Z</time>
      </trkpt>
      <trkpt lat="43.45139" lon="1.40684">
        <ele>212</ele>
        <time>2015-03-19T17:21:35Z</time>
      </trkpt>
      <trkpt lat="43.45203" lon="1.40569">
        <ele>212</ele>
        <time>2015-03-19T17:21:50Z</time>
      </trkpt>
      <trkpt lat="43.4524" lon="1.40441">
        <ele>212</ele>
        <time>2015-03-19T17:22:06Z</time>
      </trkpt>
      <trkpt lat="43.45264" lon="1.40347">
        <ele>209</ele>
        <time>2015-03-19T17:22:22Z</time>
      </trkpt>
      <trkpt lat="43.45267" lon="1.40247">
        <ele>212</ele>
        <time>2015-03-19T17:22:37Z</time>
      </trkpt>
      <trkpt lat="43.45265" lon="1.4019">
        <ele>210</ele>
        <time>2015-03-19T17:22:52Z</time>
      </trkpt>
      <trkpt lat="43.4524" lon="1.40063">
        <ele>209</ele>
        <time>2015-03-19T17:23:08Z</time>
      </trkpt>
      <trkpt lat="43.45225" lon="1.39938">
        <ele>211</ele>
        <time>2015-03-19T17:23:23Z</time>
      </trkpt>
      <trkpt lat="43.452" lon="1.39808">
        <ele>211</ele>
        <time>2015-03-19T17:23:38Z</time>
      </trkpt>
      <trkpt lat="43.45247" lon="1.39665">
        <ele>214</ele>
        <time>2015-03-19T17:23:54Z</time>
      </trkpt>
      <trkpt lat="43.45297" lon="1.39525">
        <ele>215</ele>
        <time>2015-03-19T17:24:10Z</time>
      </trkpt>
      <trkpt lat="43.4535" lon="1.39411">
        <ele>215</ele>
        <time>2015-03-19T17:24:25Z</time>
      </trkpt>
      <trkpt lat="43.4539" lon="1.39264">
        <ele>214</ele>
        <time>2015-03-19T17:24:41Z</time>
      </trkpt>
      <trkpt lat="43.45442" lon="1.39117">
        <ele>214</ele>
        <time>2015-03-19T17:24:57Z</time>
      </trkpt>
      <trkpt lat="43.45492" lon="1.38971">
        <ele>215</ele>
        <time>2015-03-19T17:25:12Z</time>
      </trkpt>
      <trkpt lat="43.45543" lon="1.38825">
        <ele>214</ele>
        <time>2015-03-19T17:25:27Z</time>
      </trkpt>
      <trkpt lat="43.45596" lon="1.38672">
        <ele>216</ele>
        <time>2015-03-19T17:25:43Z</time>
      </trkpt>
      <trkpt lat="43.4565" lon="1.38525">
        <ele>218</ele>
        <time>2015-03-19T17:25:59Z</time>
      </trkpt>
      <trkpt lat="43.45703" lon="1.3838">
        <ele>217</ele>
        <time>2015-03-19T17:26:14Z</time>
      </trkpt>
      <trkpt lat="43.45763" lon="1.38219">
        <ele>219</ele>
        <time>2015-03-19T17:26:30Z</time>
      </trkpt>
      <trkpt lat="43.45819" lon="1.38067">
        <ele>219</ele>
        <time>2015-03-19T17:26:45Z</time>
      </trkpt>
      <trkpt lat="43.45873" lon="1.3791">
        <ele>217</ele>
        <time>2015-03-19T17:27:01Z</time>
      </trkpt>
      <trkpt lat="43.45903" lon="1.37752">
        <ele>217</ele>
        <time>2015-03-19T17:27:16Z</time>
      </trkpt>
      <trkpt lat="43.45927" lon="1.37578">
        <ele>218</ele>
        <time>2015-03-19T17:27:32Z</time>
      </trkpt>
      <trkpt lat="43.45947" lon="1.37413">
        <ele>215</ele>
        <time>2015-03-19T17:27:47Z</time>
      </trkpt>
      <trkpt lat="43.45969" lon="1.37246">
        <ele>215</ele>
        <time>2015-03-19T17:28:03Z</time>
      </trkpt>
      <trkpt lat="43.45978" lon="1.37074">
        <ele>215</ele>
        <time>2015-03-19T17:28:18Z</time>
      </trkpt>
      <trkpt lat="43.45987" lon="1.36881">
        <ele>217</ele>
        <time>2015-03-19T17:28:34Z</time>
      </trkpt>
      <trkpt lat="43.45998" lon="1.36704">
        <ele>218</ele>
        <time>2015-03-19T17:28:49Z</time>
      </trkpt>
      <trkpt lat="43.45988" lon="1.36522">
        <ele>220</ele>
        <time>2015-03-19T17:29:05Z</time>
      </trkpt>
      <trkpt lat="43.4595" lon="1.36338">
        <ele>221</ele>
        <time>2015-03-19T17:29:21Z</time>
      </trkpt>
      <trkpt lat="43.45913" lon="1.36153">
        <ele>219</ele>
        <time>2015-03-19T17:29:37Z</time>
      </trkpt>
      <trkpt lat="43.45879" lon="1.35983">
        <ele>222</ele>
        <time>2015-03-19T17:29:52Z</time>
      </trkpt>
      <trkpt lat="43.45845" lon="1.35804">
        <ele>223</ele>
        <time>2015-03-19T17:30:08Z</time>
      </trkpt>
      <trkpt lat="43.4589" lon="1.35628">
        <ele>224</ele>
        <time>2015-03-19T17:30:24Z</time>
      </trkpt>
      <trkpt lat="43.45956" lon="1.35456">
        <ele>224</ele>
        <time>2015-03-19T17:30:40Z</time>
      </trkpt>
      <trkpt lat="43.4602" lon="1.35287">
        <ele>224</ele>
        <time>2015-03-19T17:30:56Z</time>
      </trkpt>
      <trkpt lat="43.46082" lon="1.35121">
        <ele>227</ele>
        <time>2015-03-19T17:31:12Z</time>
      </trkpt>
      <trkpt lat="43.46137" lon="1.34971">
        <ele>228</ele>
        <time>2015-03-19T17:31:27Z</time>
      </trkpt>
      <trkpt lat="43.46189" lon="1.34823">
        <ele>227</ele>
        <time>2015-03-19T17:31:43Z</time>
      </trkpt>
      <trkpt lat="43.46176" lon="1.34667">
        <ele>232</ele>
        <time>2015-03-19T17:31:59Z</time>
      </trkpt>
      <trkpt lat="43.46123" lon="1.34534">
        <ele>233</ele>
        <time>2015-03-19T17:32:14Z</time>
      </trkpt>
      <trkpt lat="43.46065" lon="1.34392">
        <ele>235</ele>
        <time>2015-03-19T17:32:30Z</time>
      </trkpt>
      <trkpt lat="43.46014" lon="1.3423">
        <ele>234</ele>
        <time>2015-03-19T17:32:46Z</time>
      </trkpt>
      <trkpt lat="43.46042" lon="1.34008">
        <ele>224</ele>
        <time>2015-03-19T17:33:01Z</time>
      </trkpt>
      <trkpt lat="43.46074" lon="1.3376">
        <ele>213</ele>
        <time>2015-03-19T17:33:16Z</time>
      </trkpt>
      <trkpt lat="43.45966" lon="1.336">
        <ele>210</ele>
        <time>2015-03-19T17:33:32Z</time>
      </trkpt>
      <trkpt lat="43.45973" lon="1.33469">
        <ele>210</ele>
        <time>2015-03-19T17:33:47Z</time>
      </trkpt>
      <trkpt lat="43.46072" lon="1.3341">
        <ele>218</ele>
        <time>2015-03-19T17:34:03Z</time>
      </trkpt>
      <trkpt lat="43.46174" lon="1.33356">
        <ele>217</ele>
        <time>2015-03-19T17:34:19Z</time>
      </trkpt>
      <trkpt lat="43.46278" lon="1.33302">
        <ele>214</ele>
        <time>2015-03-19T17:34:34Z</time>
      </trkpt>
      <trkpt lat="43.46386" lon="1.33268">
        <ele>214</ele>
        <time>2015-03-19T17:34:49Z</time>
      </trkpt>
      <trkpt lat="43.46484" lon="1.33221">
        <ele>215</ele>
        <time>2015-03-19T17:35:05Z</time>
      </trkpt>
      <trkpt lat="43.4659" lon="1.3319">
        <ele>217</ele>
        <time>2015-03-19T17:35:20Z</time>
      </trkpt>
      <trkpt lat="43.46704" lon="1.33154">
        <ele>214</ele>
        <time>2015-03-19T17:35:36Z</time>
      </trkpt>
      <trkpt lat="43.46679" lon="1.33141">
        <ele>214</ele>
        <time>2015-03-19T17:35:52Z</time>
      </trkpt>
      <trkpt lat="43.46608" lon="1.33139">
        <ele>217</ele>
        <time>2015-03-19T17:36:07Z</time>
      </trkpt>
      <trkpt lat="43.466" lon="1.33036">
        <ele>220</ele>
        <time>2015-03-19T17:36:22Z</time>
      </trkpt>
      <trkpt lat="43.46612" lon="1.32924">
        <ele>217</ele>
        <time>2015-03-19T17:36:37Z</time>
      </trkpt>
      <trkpt lat="43.46646" lon="1.32787">
        <ele>214</ele>
        <time>2015-03-19T17:36:53Z</time>
      </trkpt>
      <trkpt lat="43.46686" lon="1.32775">
        <ele>214</ele>
        <time>2015-03-19T17:37:08Z</time>
      </trkpt>
      <trkpt lat="43.46741" lon="1.32767">
        <ele>213</ele>
        <time>2015-03-19T17:37:23Z</time>
      </trkpt>
      <trkpt lat="43.46777" lon="1.32593">
        <ele>209</ele>
        <time>2015-03-19T17:37:39Z</time>
      </trkpt>
      <trkpt lat="43.46812" lon="1.32457">
        <ele>214</ele>
        <time>2015-03-19T17:37:54Z</time>
      </trkpt>
      <trkpt lat="43.46907" lon="1.32391">
        <ele>211</ele>
        <time>2015-03-19T17:38:10Z</time>
      </trkpt>
      <trkpt lat="43.47026" lon="1.32394">
        <ele>210</ele>
        <time>2015-03-19T17:38:25Z</time>
      </trkpt>
      <trkpt lat="43.47155" lon="1.32399">
        <ele>209</ele>
        <time>2015-03-19T17:38:41Z</time>
      </trkpt>
      <trkpt lat="43.47272" lon="1.3237">
        <ele>211</ele>
        <time>2015-03-19T17:38:57Z</time>
      </trkpt>
      <trkpt lat="43.47382" lon="1.32352">
        <ele>213</ele>
        <time>2015-03-19T17:39:13Z</time>
      </trkpt>
      <trkpt lat="43.4746" lon="1.32282">
        <ele>212</ele>
        <time>2015-03-19T17:39:28Z</time>
      </trkpt>
      <trkpt lat="43.47524" lon="1.32272">
        <ele>215</ele>
        <time>2015-03-19T17:39:44Z</time>
      </trkpt>
      <trkpt lat="43.47553" lon="1.32142">
        <ele>217</ele>
        <time>2015-03-19T17:40:00Z</time>
      </trkpt>
      <trkpt lat="43.47599" lon="1.32037">
        <ele>221</ele>
        <time>2015-03-19T17:40:16Z</time>
      </trkpt>
      <trkpt lat="43.47677" lon="1.31925">
        <ele>219</ele>
        <time>2015-03-19T17:40:32Z</time>
      </trkpt>
      <trkpt lat="43.47811" lon="1.31908">
        <ele>215</ele>
        <time>2015-03-19T17:40:48Z</time>
      </trkpt>
      <trkpt lat="43.47936" lon="1.31891">
        <ele>215</ele>
        <time>2015-03-19T17:41:03Z</time>
      </trkpt>
      <trkpt lat="43.4805" lon="1.31961">
        <ele>213</ele>
        <time>2015-03-19T17:41:18Z</time>
      </trkpt>
      <trkpt lat="43.48161" lon="1.32051">
        <ele>212</ele>
        <time>2015-03-19T17:41:34Z</time>
      </trkpt>
      <trkpt lat="43.48284" lon="1.32082">
        <ele>212</ele>
        <time>2015-03-19T17:41:50Z</time>
      </trkpt>
      <trkpt lat="43.48389" lon="1.31991">
        <ele>211</ele>
        <time>2015-03-19T17:42:05Z</time>
      </trkpt>
      <trkpt lat="43.48503" lon="1.319">
        <ele>213</ele>
        <time>2015-03-19T17:42:21Z</time>
      </trkpt>
      <trkpt lat="43.4862" lon="1.31841">
        <ele>212</ele>
        <time>2015-03-19T17:42:36Z</time>
      </trkpt>
      <trkpt lat="43.48738" lon="1.31767">
        <ele>210</ele>
        <time>2015-03-19T17:42:52Z</time>
      </trkpt>
      <trkpt lat="43.48842" lon="1.31698">
        <ele>211</ele>
        <time>2015-03-19T17:43:07Z</time>
      </trkpt>
      <trkpt lat="43.4895" lon="1.31633">
        <ele>213</ele>
        <time>2015-03-19T17:43:23Z</time>
      </trkpt>
      <trkpt lat="43.49035" lon="1.31566">
        <ele>210</ele>
        <time>2015-03-19T17:43:39Z</time>
      </trkpt>
      <trkpt lat="43.49138" lon="1.31477">
        <ele>210</ele>
        <time>2015-03-19T17:43:55Z</time>
      </trkpt>
      <trkpt lat="43.49235" lon="1.31395">
        <ele>214</ele>
        <time>2015-03-19T17:44:10Z</time>
      </trkpt>
      <trkpt lat="43.49329" lon="1.31337">
        <ele>217</ele>
        <time>2015-03-19T17:44:26Z</time>
      </trkpt>
      <trkpt lat="43.49419" lon="1.31306">
        <ele>218</ele>
        <time>2015-03-19T17:44:42Z</time>
      </trkpt>
      <trkpt lat="43.49524" lon="1.31352">
        <ele>215</ele>
        <time>2015-03-19T17:44:58Z</time>
      </trkpt>
      <trkpt lat="43.49626" lon="1.31357">
        <ele>213</ele>
        <time>2015-03-19T17:45:14Z</time>
      </trkpt>
      <trkpt lat="43.49692" lon="1.31259">
        <ele>215</ele>
        <time>2015-03-19T17:45:30Z</time>
      </trkpt>
      <trkpt lat="43.49752" lon="1.31182">
        <ele>217</ele>
        <time>2015-03-19T17:45:46Z</time>
      </trkpt>
      <trkpt lat="43.49814" lon="1.3114">
        <ele>222</ele>
        <time>2015-03-19T17:46:01Z</time>
      </trkpt>
      <trkpt lat="43.49876" lon="1.31094">
        <ele>222</ele>
        <time>2015-03-19T17:46:16Z</time>
      </trkpt>
      <trkpt lat="43.49939" lon="1.31016">
        <ele>221</ele>
        <time>2015-03-19T17:46:31Z</time>
      </trkpt>
      <trkpt lat="43.50014" lon="1.31078">
        <ele>221</ele>
        <time>2015-03-19T17:46:47Z</time>
      </trkpt>
      <trkpt lat="43.50102" lon="1.31147">
        <ele>223</ele>
        <time>2015-03-19T17:47:03Z</time>
      </trkpt>
      <trkpt lat="43.50199" lon="1.31221">
        <ele>222</ele>
        <time>2015-03-19T17:47:19Z</time>
      </trkpt>
      <trkpt lat="43.50291" lon="1.31291">
        <ele>220</ele>
        <time>2015-03-19T17:47:34Z</time>
      </trkpt>
      <trkpt lat="43.50383" lon="1.31361">
        <ele>220</ele>
        <time>2015-03-19T17:47:50Z</time>
      </trkpt>
      <trkpt lat="43.50372" lon="1.31455">
        <ele>222</ele>
        <time>2015-03-19T17:48:05Z</time>
      </trkpt>
      <trkpt lat="43.50463" lon="1.31526">
        <ele>220</ele>
        <time>2015-03-19T17:48:21Z</time>
      </trkpt>
      <trkpt lat="43.50558" lon="1.31602">
        <ele>218</ele>
        <time>2015-03-19T17:48:36Z</time>
      </trkpt>
      <trkpt lat="43.50654" lon="1.31675">
        <ele>217</ele>
        <time>2015-03-19T17:48:51Z</time>
      </trkpt>
      <trkpt lat="43.50755" lon="1.31755">
        <ele>217</ele>
        <time>2015-03-19T17:49:06Z</time>
      </trkpt>
      <trkpt lat="43.50854" lon="1.31836">
        <ele>216</ele>
        <time>2015-03-19T17:49:21Z</time>
      </trkpt>
      <trkpt lat="43.50955" lon="1.31918">
        <ele>217</ele>
        <time>2015-03-19T17:49:37Z</time>
      </trkpt>
      <trkpt lat="43.51054" lon="1.32009">
        <ele>215</ele>
        <time>2015-03-19T17:49:53Z</time>
      </trkpt>
      <trkpt lat="43.5114" lon="1.32089">
        <ele>216</ele>
        <time>2015-03-19T17:50:08Z</time>
      </trkpt>
      <trkpt lat="43.51217" lon="1.32163">
        <ele>217</ele>
        <time>2015-03-19T17:50:24Z</time>
      </trkpt>
      <trkpt lat="43.51299" lon="1.32241">
        <ele>215</ele>
        <time>2015-03-19T17:50:40Z</time>
      </trkpt>
      <trkpt lat="43.51335" lon="1.32273">
        <ele>216</ele>
        <time>2015-03-19T17:50:55Z</time>
      </trkpt>
      <trkpt lat="43.51382" lon="1.3219">
        <ele>216</ele>
        <time>2015-03-19T17:51:11Z</time>
      </trkpt>
      <trkpt lat="43.51428" lon="1.32068">
        <ele>215</ele>
        <time>2015-03-19T17:51:26Z</time>
      </trkpt>
      <trkpt lat="43.51467" lon="1.31932">
        <ele>215</ele>
        <time>2015-03-19T17:51:41Z</time>
      </trkpt>
      <trkpt lat="43.51503" lon="1.3178">
        <ele>216</ele>
        <time>2015-03-19T17:51:57Z</time>
      </trkpt>
      <trkpt lat="43.51584" lon="1.31705">
        <ele>217</ele>
        <time>2015-03-19T17:52:12Z</time>
      </trkpt>
      <trkpt lat="43.51678" lon="1.31795">
        <ele>216</ele>
        <time>2015-03-19T17:52:28Z</time>
      </trkpt>
      <trkpt lat="43.5177" lon="1.31867">
        <ele>217</ele>
        <time>2015-03-19T17:52:43Z</time>
      </trkpt>
      <trkpt lat="43.51856" lon="1.3194">
        <ele>220</ele>
        <time>2015-03-19T17:52:58Z</time>
      </trkpt>
      <trkpt lat="43.51932" lon="1.32006">
        <ele>217</ele>
        <time>2015-03-19T17:53:14Z</time>
      </trkpt>
      <trkpt lat="43.52041" lon="1.32048">
        <ele>218</ele>
        <time>2015-03-19T17:53:30Z</time>
      </trkpt>
      <trkpt lat="43.52138" lon="1.32125">
        <ele>218</ele>
        <time>2015-03-19T17:53:45Z</time>
      </trkpt>
      <trkpt lat="43.52236" lon="1.32203">
        <ele>218</ele>
        <time>2015-03-19T17:54:00Z</time>
      </trkpt>
      <trkpt lat="43.52346" lon="1.32275">
        <ele>216</ele>
        <time>2015-03-19T17:54:16Z</time>
      </trkpt>
      <trkpt lat="43.52448" lon="1.32312">
        <ele>214</ele>
        <time>2015-03-19T17:54:32Z</time>
      </trkpt>
      <trkpt lat="43.52525" lon="1.3232">
        <ele>216</ele>
        <time>2015-03-19T17:54:47Z</time>
      </trkpt>
      <trkpt lat="43.52613" lon="1.32369">
        <ele>216</ele>
        <time>2015-03-19T17:55:02Z</time>
      </trkpt>
      <trkpt lat="43.52692" lon="1.32465">
        <ele>216</ele>
        <time>2015-03-19T17:55:18Z</time>
      </trkpt>
      <trkpt lat="43.52767" lon="1.32567">
        <ele>217</ele>
        <time>2015-03-19T17:55:33Z</time>
      </trkpt>
      <trkpt lat="43.52847" lon="1.32655">
        <ele>217</ele>
        <time>2015-03-19T17:55:48Z</time>
      </trkpt>
      <trkpt lat="43.52936" lon="1.32737">
        <ele>216</ele>
        <time>2015-03-19T17:56:03Z</time>
      </trkpt>
      <trkpt lat="43.52995" lon="1.32821">
        <ele>214</ele>
        <time>2015-03-19T17:56:19Z</time>
      </trkpt>
      <trkpt lat="43.5306" lon="1.32882">
        <ele>212</ele>
        <time>2015-03-19T17:56:34Z</time>
      </trkpt>
      <trkpt lat="43.53153" lon="1.32964">
        <ele>214</ele>
        <time>2015-03-19T17:56:49Z</time>
      </trkpt>
      <trkpt lat="43.53228" lon="1.33043">
        <ele>211</ele>
        <time>2015-03-19T17:57:04Z</time>
      </trkpt>
      <trkpt lat="43.53308" lon="1.3314">
        <ele>213</ele>
        <time>2015-03-19T17:57:20Z</time>
      </trkpt>
      <trkpt lat="43.53403" lon="1.33221">
        <ele>212</ele>
        <time>2015-03-19T17:57:36Z</time>
      </trkpt>
      <trkpt lat="43.53487" lon="1.33309">
        <ele>213</ele>
        <time>2015-03-19T17:57:51Z</time>
      </trkpt>
      <trkpt lat="43.53576" lon="1.33411">
        <ele>213</ele>
        <time>2015-03-19T17:58:06Z</time>
      </trkpt>
      <trkpt lat="43.5367" lon="1.33516">
        <ele>212</ele>
        <time>2015-03-19T17:58:22Z</time>
      </trkpt>
      <trkpt lat="43.53654" lon="1.33629">
        <ele>210</ele>
        <time>2015-03-19T17:58:38Z</time>
      </trkpt>
      <trkpt lat="43.53661" lon="1.33728">
        <ele>212</ele>
        <time>2015-03-19T17:58:53Z</time>
      </trkpt>
      <trkpt lat="43.53723" lon="1.33855">
        <ele>212</ele>
        <time>2015-03-19T17:59:09Z</time>
      </trkpt>
      <trkpt lat="43.53787" lon="1.3399">
        <ele>211</ele>
        <time>2015-03-19T17:59:25Z</time>
      </trkpt>
      <trkpt lat="43.53825" lon="1.3406">
        <ele>211</ele>
        <time>2015-03-19T17:59:40Z</time>
      </trkpt>
      <trkpt lat="43.53873" lon="1.3398">
        <ele>211</ele>
        <time>2015-03-19T17:59:56Z</time>
      </trkpt>
      <trkpt lat="43.53952" lon="1.33923">
        <ele>211</ele>
        <time>2015-03-19T18:00:12Z</time>
      </trkpt>
      <trkpt lat="43.54063" lon="1.33879">
        <ele>213</ele>
        <time>2015-03-19T18:00:28Z</time>
      </trkpt>
      <trkpt lat="43.54164" lon="1.33831">
        <ele>213</ele>
        <time>2015-03-19T18:00:44Z</time>
      </trkpt>
      <trkpt lat="43.54272" lon="1.33823">
        <ele>212</ele>
        <time>2015-03-19T18:01:00Z</time>
      </trkpt>
      <trkpt lat="43.54383" lon="1.33817">
        <ele>211</ele>
        <time>2015-03-19T18:01:15Z</time>
      </trkpt>
      <trkpt lat="43.54505" lon="1.33811">
        <ele>212</ele>
        <time>2015-03-19T18:01:31Z</time>
      </trkpt>
      <trkpt lat="43.54626" lon="1.33801">
        <ele>211</ele>
        <time>2015-03-19T18:01:47Z</time>
      </trkpt>
      <trkpt lat="43.54746" lon="1.33771">
        <ele>210</ele>
        <time>2015-03-19T18:02:03Z</time>
      </trkpt>
      <trkpt lat="43.54855" lon="1.33722">
        <ele>211</ele>
        <time>2015-03-19T18:02:19Z</time>
      </trkpt>
      <trkpt lat="43.54951" lon="1.33662">
        <ele>211</ele>
        <time>2015-03-19T18:02:34Z</time>
      </trkpt>
      <trkpt lat="43.55066" lon="1.33615">
        <ele>212</ele>
        <time>2015-03-19T18:02:50Z</time>
      </trkpt>
      <trkpt lat="43.55175" lon="1.33562">
        <ele>211</ele>
        <time>2015-03-19T18:03:05Z</time>
      </trkpt>
      <trkpt lat="43.55279" lon="1.33476">
        <ele>210</ele>
        <time>2015-03-19T18:03:21Z</time>
      </trkpt>
      <trkpt lat="43.55378" lon="1.33395">
        <ele>207</ele>
        <time>2015-03-19T18:03:36Z</time>
      </trkpt>
      <trkpt lat="43.55485" lon="1.3332">
        <ele>207</ele>
        <time>2015-03-19T18:03:52Z</time>
      </trkpt>
      <trkpt lat="43.55587" lon="1.33298">
        <ele>210</ele>
        <time>2015-03-19T18:04:07Z</time>
      </trkpt>
      <trkpt lat="43.55679" lon="1.33389">
        <ele>210</ele>
        <time>2015-03-19T18:04:23Z</time>
      </trkpt>
      <trkpt lat="43.55786" lon="1.33454">
        <ele>210</ele>
        <time>2015-03-19T18:04:39Z</time>
      </trkpt>
      <trkpt lat="43.55894" lon="1.33523">
        <ele>210</ele>
        <time>2015-03-19T18:04:55Z</time>
      </trkpt>
      <trkpt lat="43.55985" lon="1.33614">
        <ele>209</ele>
        <time>2015-03-19T18:05:10Z</time>
      </trkpt>
      <trkpt lat="43.56076" lon="1.337">
        <ele>209</ele>
        <time>2015-03-19T18:05:25Z</time>
      </trkpt>
      <trkpt lat="43.56163" lon="1.33788">
        <ele>210</ele>
        <time>2015-03-19T18:05:41Z</time>
      </trkpt>
      <trkpt lat="43.56246" lon="1.33876">
        <ele>209</ele>
        <time>2015-03-19T18:05:56Z</time>
      </trkpt>
      <trkpt lat="43.56321" lon="1.33967">
        <ele>208</ele>
        <time>2015-03-19T18:06:12Z</time>
      </trkpt>
      <trkpt lat="43.56382" lon="1.33882">
        <ele>207</ele>
        <time>2015-03-19T18:06:28Z</time>
      </trkpt>
      <trkpt lat="43.56466" lon="1.33799">
        <ele>208</ele>
        <time>2015-03-19T18:06:43Z</time>
      </trkpt>
      <trkpt lat="43.56559" lon="1.33712">
        <ele>208</ele>
        <time>2015-03-19T18:06:59Z</time>
      </trkpt>
      <trkpt lat="43.56652" lon="1.33636">
        <ele>208</ele>
        <time>2015-03-19T18:07:15Z</time>
      </trkpt>
      <trkpt lat="43.56718" lon="1.33607">
        <ele>209</ele>
        <time>2015-03-19T18:07:31Z</time>
      </trkpt>
      <trkpt lat="43.56761" lon="1.33554">
        <ele>209</ele>
        <time>2015-03-19T18:07:46Z</time>
      </trkpt>
      <trkpt lat="43.56848" lon="1.33485">
        <ele>207</ele>
        <time>2015-03-19T18:08:01Z</time>
      </trkpt>
      <trkpt lat="43.56938" lon="1.33424">
        <ele>207</ele>
        <time>2015-03-19T18:08:17Z</time>
      </trkpt>
      <trkpt lat="43.56985" lon="1.33436">
        <ele>207</ele>
        <time>2015-03-19T18:08:33Z</time>
      </trkpt>
      <trkpt lat="43.57032" lon="1.33543">
        <ele>208</ele>
        <time>2015-03-19T18:08:48Z</time>
      </trkpt>
      <trkpt lat="43.57089" lon="1.33664">
        <ele>208</ele>
        <time>2015-03-19T18:09:03Z</time>
      </trkpt>
      <trkpt lat="43.5714" lon="1.3377">
        <ele>207</ele>
        <time>2015-03-19T18:09:19Z</time>
      </trkpt>
      <trkpt lat="43.57195" lon="1.33881">
        <ele>206</ele>
        <time>2015-03-19T18:09:35Z</time>
      </trkpt>
      <trkpt lat="43.57248" lon="1.33991">
        <ele>206</ele>
        <time>2015-03-19T18:09:51Z</time>
      </trkpt>
      <trkpt lat="43.57285" lon="1.34072">
        <ele>208</ele>
        <time>2015-03-19T18:10:06Z</time>
      </trkpt>
      <trkpt lat="43.57328" lon="1.34162">
        <ele>208</ele>
        <time>2015-03-19T18:10:22Z</time>
      </trkpt>
      <trkpt lat="43.57359" lon="1.34167">
        <ele>207</ele>
        <time>2015-03-19T18:10:37Z</time>
      </trkpt>
      <trkpt lat="43.57416" lon="1.34102">
        <ele>205</ele>
        <time>2015-03-19T18:10:53Z</time>
      </trkpt>
      <trkpt lat="43.5745" lon="1.34039">
        <ele>203</ele>
        <time>2015-03-19T18:11:08Z</time>
      </trkpt>
    </trkseg>
  </trk>
</gpx>